Time;durP1;ratioP1;P1;durP2;ratioP2;P2;SDS_P1;SDS_P2;PMS_P1;PMS_P2;Temp;Humidity;BMP_temperature;BMP_pressure;BME280_temperature;BME280_humidity;BME280_pressure;Samples;Min_cycle;Max_cycle;Signal;HPM_P1;HPM_P2
2021/03/14 00:01:51;;;;;;;;;;;;;;;;;;5074005;28;19904;-66
2021/03/14 00:04:17;;;;;;;;;;;;;;;;;;5072722;28;19908;-66
2021/03/14 00:06:43;;;;;;;;;;;;;;;;;;5074260;28;20373;-66
2021/03/14 00:09:09;;;;;;;;;;;;;;;;;;5074118;28;19904;-66
2021/03/14 00:11:35;;;;;;;;;;;;;;;;;;5073960;28;19905;-66
2021/03/14 00:14:01;;;;;;;;;;;;;;;;;;5073952;28;19983;-66
2021/03/14 00:16:27;;;;;;;;;;;;;;;;;;5073875;28;19905;-66
2021/03/14 00:18:53;;;;;;;;;;;;;;;;;;5073881;28;20364;-65
2021/03/14 00:21:19;;;;;;;;;;;;;;;;;;5073949;28;19904;-66
2021/03/14 00:23:45;;;;;;;;;;;;;;;;;;5074178;28;19912;-66
2021/03/14 00:26:11;;;;;;;;;;;;;;;;;;5073516;28;20365;-66
2021/03/14 00:28:37;;;;;;;;;;;;;;;;;;5074032;28;19909;-66
2021/03/14 00:31:03;;;;;;;;;;;;;;;;;;5073999;28;20007;-66
2021/03/14 00:33:29;;;;;;;;;;;;;;;;;;5073768;28;19905;-66
2021/03/14 00:35:55;;;;;;;;;;;;;;;;;;5073994;28;19908;-66
2021/03/14 00:38:21;;;;;;;;;;;;;;;;;;5073710;28;19950;-66
2021/03/14 00:40:47;;;;;;;;;;;;;;;;;;5073796;28;20380;-66
2021/03/14 00:43:13;;;;;;;;;;;;;;;;;;5073567;28;19904;-66
2021/03/14 00:45:39;;;;;;;;;;;;;;;;;;5073594;28;19944;-66
2021/03/14 00:48:05;;;;;;;;;;;;;;;;;;5073778;28;19958;-66
2021/03/14 00:50:31;;;;;;;;;;;;;;;;;;5073540;28;19911;-66
2021/03/14 00:52:57;;;;;;;;;;;;;;;;;;5073752;28;19909;-66
2021/03/14 00:55:23;;;;;;;;;;;;;;;;;;5073611;28;20361;-66
2021/03/14 00:57:49;;;;;;;;;;;;;;;;;;5073517;28;20000;-66
2021/03/14 01:00:15;;;;;;;;;;;;;;;;;;5073535;28;19904;-65
2021/03/14 01:02:41;;;;;;;;;;;;;;;;;;5073757;28;19952;-66
2021/03/14 01:05:07;;;;;;;;;;;;;;;;;;5073417;28;19913;-66
2021/03/14 01:07:33;;;;;;;;;;;;;;;;;;5073415;28;20375;-66
2021/03/14 01:09:59;;;;;;;;;;;;;;;;;;5073492;28;19904;-66
2021/03/14 01:12:25;;;;;;;;;;;;;;;;;;5073337;28;19943;-66
2021/03/14 01:14:51;;;;;;;;;;;;;;;;;;5073457;28;20361;-65
2021/03/14 01:17:17;;;;;;;;;;;;;;;;;;5073511;28;19904;-66
2021/03/14 01:19:43;;;;;;;;;;;;;;;;;;5073768;28;20380;-66
2021/03/14 01:22:09;;;;;;;;;;;;;;;;;;5073239;28;19904;-66
2021/03/14 01:24:35;;;;;;;;;;;;;;;;;;5073469;28;19908;-66
2021/03/14 01:27:00;;;;;;;;;;;;;;;;;;5073120;28;19917;-66
2021/03/14 01:29:26;;;;;;;;;;;;;;;;;;5073578;28;19904;-66
2021/03/14 01:31:52;;;;;;;;;;;;;;;;;;5073207;28;20349;-66
2021/03/14 01:34:18;;;;;;;;;;;;;;;;;;5073475;28;19904;-66
2021/03/14 01:36:44;;;;;;;;;;;;;;;;;;5073377;28;20368;-66
2021/03/14 01:39:10;;;;;;;;;;;;;;;;;;5073135;28;19954;-66
2021/03/14 01:41:36;;;;;;;;;;;;;;;;;;5073152;28;19905;-66
2021/03/14 01:44:02;;;;;;;;;;;;;;;;;;5073090;28;20361;-66
2021/03/14 01:46:28;;;;;;;;;;;;;;;;;;5075830;28;20015;-66
2021/03/14 01:48:54;;;;;;;;;;;;;;;;;;5076840;28;19961;-66
2021/03/14 01:51:20;;;;;;;;;;;;;;;;;;5076554;28;19905;-66
2021/03/14 01:53:46;;;;;;;;;;;;;;;;;;5076461;28;19947;-66
2021/03/14 01:56:12;;;;;;;;;;;;;;;;;;5076624;28;19904;-66
2021/03/14 01:58:38;;;;;;;;;;;;;;;;;;5076676;28;19908;-66
2021/03/14 02:01:04;;;;;;;;;;;;;;;;;;5076391;28;20420;-66
2021/03/14 02:03:30;;;;;;;;;;;;;;;;;;5076247;28;19912;-66
2021/03/14 02:05:56;;;;;;;;;;;;;;;;;;5076313;28;19916;-66
2021/03/14 02:08:22;;;;;;;;;;;;;;;;;;5076214;28;19905;-66
2021/03/14 02:10:48;;;;;;;;;;;;;;;;;;5076494;28;20330;-66
2021/03/14 02:13:14;;;;;;;;;;;;;;;;;;5076173;28;19910;-66
2021/03/14 02:15:40;;;;;;;;;;;;;;;;;;5076183;28;19904;-66
2021/03/14 02:18:06;;;;;;;;;;;;;;;;;;5076168;28;19904;-66
2021/03/14 02:20:32;;;;;;;;;;;;;;;;;;5076379;28;20003;-66
2021/03/14 02:22:58;;;;;;;;;;;;;;;;;;5075997;28;19904;-67
2021/03/14 02:25:24;;;;;;;;;;;;;;;;;;5075951;28;19912;-66
2021/03/14 02:27:49;;;;;;;;;;;;;;;;;;5075694;28;19928;-66
2021/03/14 02:30:15;;;;;;;;;;;;;;;;;;5076035;28;19905;-66
2021/03/14 02:32:41;;;;;;;;;;;;;;;;;;5075940;28;19908;-66
2021/03/14 02:35:07;;;;;;;;;;;;;;;;;;5074617;28;19994;-66
2021/03/14 02:37:33;;;;;;;;;;;;;;;;;;5076062;28;19904;-66
2021/03/14 02:39:59;;;;;;;;;;;;;;;;;;5075801;28;20350;-66
2021/03/14 02:42:25;;;;;;;;;;;;;;;;;;5075821;28;19904;-66
2021/03/14 02:44:51;;;;;;;;;;;;;;;;;;5075786;28;19912;-65
2021/03/14 02:47:17;;;;;;;;;;;;;;;;;;5075716;28;19973;-66
2021/03/14 02:49:43;;;;;;;;;;;;;;;;;;5075550;28;20292;-66
2021/03/14 02:52:09;;;;;;;;;;;;;;;;;;5075412;28;19970;-66
2021/03/14 02:54:35;;;;;;;;;;;;;;;;;;5075706;28;19913;-66
2021/03/14 02:57:01;;;;;;;;;;;;;;;;;;5075461;28;19949;-66
2021/03/14 02:59:27;;;;;;;;;;;;;;;;;;5075238;28;20285;-66
2021/03/14 03:01:53;;;;;;;;;;;;;;;;;;5074036;28;19904;-66
2021/03/14 03:04:19;;;;;;;;;;;;;;;;;;5075462;28;19905;-66
2021/03/14 03:06:45;;;;;;;;;;;;;;;;;;5075126;28;20032;-66
2021/03/14 03:09:11;;;;;;;;;;;;;;;;;;5075339;28;19904;-67
2021/03/14 03:11:37;;;;;;;;;;;;;;;;;;5075151;28;19904;-66
2021/03/14 03:14:03;;;;;;;;;;;;;;;;;;5073130;28;20417;-66
2021/03/14 03:16:29;;;;;;;;;;;;;;;;;;5074941;28;19951;-66
2021/03/14 03:18:55;;;;;;;;;;;;;;;;;;5074824;28;20357;-66
2021/03/14 03:21:21;;;;;;;;;;;;;;;;;;5075501;28;19911;-65
2021/03/14 03:23:47;;;;;;;;;;;;;;;;;;5075000;28;19905;-66
2021/03/14 03:26:13;;;;;;;;;;;;;;;;;;5074270;28;19917;-65
2021/03/14 03:28:39;;;;;;;;;;;;;;;;;;5073609;28;19930;-64
2021/03/14 03:31:05;;;;;;;;;;;;;;;;;;5074667;28;19905;-66
2021/03/14 03:33:31;;;;;;;;;;;;;;;;;;5074659;28;19950;-66
2021/03/14 03:35:57;;;;;;;;;;;;;;;;;;5074585;28;19904;-66
2021/03/14 03:38:23;;;;;;;;;;;;;;;;;;5074608;28;19904;-67
2021/03/14 03:40:49;;;;;;;;;;;;;;;;;;5074546;28;19904;-66
2021/03/14 03:43:15;;;;;;;;;;;;;;;;;;5074737;28;19912;-66
2021/03/14 03:45:41;;;;;;;;;;;;;;;;;;5074361;28;19912;-65
2021/03/14 03:48:07;;;;;;;;;;;;;;;;;;5074608;28;20116;-66
2021/03/14 03:50:33;;;;;;;;;;;;;;;;;;5074414;28;20372;-65
2021/03/14 03:52:59;;;;;;;;;;;;;;;;;;5074346;28;19904;-65
2021/03/14 03:55:25;;;;;;;;;;;;;;;;;;5074111;28;19922;-66
2021/03/14 03:57:51;;;;;;;;;;;;;;;;;;5074185;28;20004;-66
2021/03/14 04:00:17;;;;;;;;;;;;;;;;;;5074051;28;20269;-66
2021/03/14 04:02:43;;;;;;;;;;;;;;;;;;5074202;28;19911;-66
2021/03/14 04:05:09;;;;;;;;;;;;;;;;;;5074142;28;19959;-66
2021/03/14 04:07:35;;;;;;;;;;;;;;;;;;5073891;28;19939;-66
2021/03/14 04:10:01;;;;;;;;;;;;;;;;;;5074067;28;20365;-66
2021/03/14 04:12:27;;;;;;;;;;;;;;;;;;5074023;28;19912;-66
2021/03/14 04:14:53;;;;;;;;;;;;;;;;;;5074002;28;19998;-66
2021/03/14 04:17:19;;;;;;;;;;;;;;;;;;5073892;28;20269;-67
2021/03/14 04:19:45;;;;;;;;;;;;;;;;;;5073751;28;19905;-66
2021/03/14 04:22:11;;;;;;;;;;;;;;;;;;5074073;28;19911;-66
2021/03/14 04:24:37;;;;;;;;;;;;;;;;;;5073501;28;19950;-65
2021/03/14 04:27:03;;;;;;;;;;;;;;;;;;5073601;28;20357;-66
2021/03/14 04:29:29;;;;;;;;;;;;;;;;;;5073196;28;19909;-65
2021/03/14 04:31:55;;;;;;;;;;;;;;;;;;5072368;28;19908;-65
2021/03/14 04:34:21;;;;;;;;;;;;;;;;;;5073809;28;19958;-66
2021/03/14 04:36:47;;;;;;;;;;;;;;;;;;5072693;28;19908;-65
2021/03/14 04:39:12;;;;;;;;;;;;;;;;;;5073429;28;19905;-64
2021/03/14 04:41:38;;;;;;;;;;;;;;;;;;5073605;28;20410;-66
2021/03/14 04:44:04;;;;;;;;;;;;;;;;;;5073624;28;19911;-66
2021/03/14 04:46:30;;;;;;;;;;;;;;;;;;5073543;28;19959;-65
2021/03/14 04:48:56;;;;;;;;;;;;;;;;;;5073682;28;20384;-66
2021/03/14 04:51:22;;;;;;;;;;;;;;;;;;5072196;28;19963;-66
2021/03/14 04:53:48;;;;;;;;;;;;;;;;;;5073575;28;19905;-66
2021/03/14 04:56:14;;;;;;;;;;;;;;;;;;5073743;28;19950;-66
2021/03/14 04:58:40;;;;;;;;;;;;;;;;;;5073539;28;20384;-66
2021/03/14 05:01:06;;;;;;;;;;;;;;;;;;5073401;28;20352;-65
2021/03/14 05:03:32;;;;;;;;;;;;;;;;;;5073469;28;19939;-66
2021/03/14 05:05:58;;;;;;;;;;;;;;;;;;5073281;28;19916;-66
2021/03/14 05:08:24;;;;;;;;;;;;;;;;;;5073382;28;19910;-66
2021/03/14 05:10:50;;;;;;;;;;;;;;;;;;5073584;28;19904;-66
2021/03/14 05:13:16;;;;;;;;;;;;;;;;;;5073742;28;20249;-66
2021/03/14 05:15:42;;;;;;;;;;;;;;;;;;5073191;28;19905;-66
2021/03/14 05:18:08;;;;;;;;;;;;;;;;;;5073737;28;19912;-66
2021/03/14 05:20:34;;;;;;;;;;;;;;;;;;5075163;28;19904;-66
2021/03/14 05:23:00;;;;;;;;;;;;;;;;;;5076203;28;19909;-65
2021/03/14 05:25:26;;;;;;;;;;;;;;;;;;5077071;28;19919;-66
2021/03/14 05:27:52;;;;;;;;;;;;;;;;;;5076759;28;19920;-66
2021/03/14 05:30:18;;;;;;;;;;;;;;;;;;5077095;28;19908;-66
2021/03/14 05:32:44;;;;;;;;;;;;;;;;;;5077080;28;19962;-66
2021/03/14 05:35:10;;;;;;;;;;;;;;;;;;5077019;28;19911;-66
2021/03/14 05:37:35;;;;;;;;;;;;;;;;;;5076732;28;19927;-66
2021/03/14 05:40:01;;;;;;;;;;;;;;;;;;5077080;28;19908;-66
2021/03/14 05:42:27;;;;;;;;;;;;;;;;;;5076728;28;20428;-66
2021/03/14 05:44:53;;;;;;;;;;;;;;;;;;5076706;28;19966;-66
2021/03/14 05:47:19;;;;;;;;;;;;;;;;;;5076751;28;19915;-66
2021/03/14 05:49:45;;;;;;;;;;;;;;;;;;5076671;28;19905;-66
2021/03/14 05:52:11;;;;;;;;;;;;;;;;;;5076445;28;19991;-66
2021/03/14 05:54:37;;;;;;;;;;;;;;;;;;5076928;28;19991;-66
2021/03/14 05:57:03;;;;;;;;;;;;;;;;;;5076783;28;19905;-66
2021/03/14 05:59:29;;;;;;;;;;;;;;;;;;5076529;28;20361;-66
2021/03/14 06:01:55;;;;;;;;;;;;;;;;;;5076472;28;19908;-66
2021/03/14 06:04:21;;;;;;;;;;;;;;;;;;5076360;28;19935;-66
2021/03/14 06:06:47;;;;;;;;;;;;;;;;;;5076408;28;19923;-66
2021/03/14 06:09:13;;;;;;;;;;;;;;;;;;5075214;28;19905;-66
2021/03/14 06:11:39;;;;;;;;;;;;;;;;;;5076615;28;19900;-65
2021/03/14 06:14:05;;;;;;;;;;;;;;;;;;5076539;28;19908;-66
2021/03/14 06:16:31;;;;;;;;;;;;;;;;;;5076455;28;19900;-65
2021/03/14 06:18:57;;;;;;;;;;;;;;;;;;5076122;28;20418;-66
2021/03/14 06:21:23;;;;;;;;;;;;;;;;;;5076239;28;19994;-66
2021/03/14 06:23:49;;;;;;;;;;;;;;;;;;5076301;28;19911;-66
2021/03/14 06:26:15;;;;;;;;;;;;;;;;;;5075735;28;20018;-66
2021/03/14 06:28:41;;;;;;;;;;;;;;;;;;5075886;28;19908;-66
2021/03/14 06:31:07;;;;;;;;;;;;;;;;;;5075552;28;19912;-66
2021/03/14 06:33:33;;;;;;;;;;;;;;;;;;5075771;28;19953;-66
2021/03/14 06:35:59;;;;;;;;;;;;;;;;;;5076222;28;19911;-66
2021/03/14 06:38:25;;;;;;;;;;;;;;;;;;5076072;28;20383;-66
2021/03/14 06:40:51;;;;;;;;;;;;;;;;;;5075766;28;19905;-66
2021/03/14 06:43:17;;;;;;;;;;;;;;;;;;5075643;28;19953;-66
2021/03/14 06:45:43;;;;;;;;;;;;;;;;;;5075631;28;19917;-66
2021/03/14 06:48:09;;;;;;;;;;;;;;;;;;5074345;28;20440;-66
2021/03/14 06:50:35;;;;;;;;;;;;;;;;;;5075630;28;20258;-66
2021/03/14 06:53:01;;;;;;;;;;;;;;;;;;5075402;28;19927;-66
2021/03/14 06:55:27;;;;;;;;;;;;;;;;;;5075522;28;19904;-66
2021/03/14 06:57:53;;;;;;;;;;;;;;;;;;5075394;28;19911;-66
2021/03/14 07:00:19;;;;;;;;;;;;;;;;;;5075403;28;20323;-66
2021/03/14 07:02:45;;;;;;;;;;;;;;;;;;5075545;28;19912;-66
2021/03/14 07:05:11;;;;;;;;;;;;;;;;;;5074004;28;19952;-67
2021/03/14 07:07:36;;;;;;;;;;;;;;;;;;5075280;28;19904;-67
2021/03/14 07:10:02;;;;;;;;;;;;;;;;;;5075442;28;19904;-66
2021/03/14 07:12:28;;;;;;;;;;;;;;;;;;5075153;28;20316;-66
2021/03/14 07:14:54;;;;;;;;;;;;;;;;;;5075123;28;19909;-66
2021/03/14 07:17:20;;;;;;;;;;;;;;;;;;5074991;28;19904;-66
2021/03/14 07:19:46;;;;;;;;;;;;;;;;;;5074878;28;19950;-66
2021/03/14 07:22:13;;;;;;;;;;;;;;;;;;5074984;28;19904;-66
2021/03/14 07:24:39;;;;;;;;;;;;;;;;;;5074769;28;20299;-66
2021/03/14 07:27:05;;;;;;;;;;;;;;;;;;5074862;28;19920;-66
2021/03/14 07:29:31;;;;;;;;;;;;;;;;;;5074288;28;19908;-66
2021/03/14 07:31:57;;;;;;;;;;;;;;;;;;5074291;28;19905;-65
2021/03/14 07:34:23;;;;;;;;;;;;;;;;;;5073078;28;20406;-66
2021/03/14 07:36:49;;;;;;;;;;;;;;;;;;5074615;28;19911;-65
2021/03/14 07:39:14;;;;;;;;;;;;;;;;;;5074481;28;20384;-66
2021/03/14 07:41:40;;;;;;;;;;;;;;;;;;5074518;28;19912;-66
2021/03/14 07:44:07;;;;;;;;;;;;;;;;;;5072422;28;19995;-65
2021/03/14 07:46:33;;;;;;;;;;;;;;;;;;5074655;28;20262;-66
2021/03/14 07:48:59;;;;;;;;;;;;;;;;;;5074272;28;19919;-66
2021/03/14 07:51:24;;;;;;;;;;;;;;;;;;5074289;28;19905;-66
2021/03/14 07:53:51;;;;;;;;;;;;;;;;;;5074488;28;19905;-66
2021/03/14 07:56:16;;;;;;;;;;;;;;;;;;5074530;28;20252;-66
2021/03/14 07:58:42;;;;;;;;;;;;;;;;;;5074360;28;19958;-66
2021/03/14 08:01:08;;;;;;;;;;;;;;;;;;5074130;28;19904;-66
2021/03/14 08:03:34;;;;;;;;;;;;;;;;;;5074402;28;19944;-66
2021/03/14 08:06:00;;;;;;;;;;;;;;;;;;5074329;28;19962;-66
2021/03/14 08:08:26;;;;;;;;;;;;;;;;;;5073075;28;19924;-65
2021/03/14 08:10:53;;;;;;;;;;;;;;;;;;5073228;28;20313;-61
2021/03/14 08:13:19;;;;;;;;;;;;;;;;;;5073659;28;19949;-65
2021/03/14 08:15:45;;;;;;;;;;;;;;;;;;5073520;28;20378;-65
2021/03/14 08:18:11;;;;;;;;;;;;;;;;;;5073410;28;19911;-65
2021/03/14 08:20:37;;;;;;;;;;;;;;;;;;5073252;28;19958;-65
2021/03/14 08:23:05;;;;;;;;;;;;;;;;;;5073426;28;19955;-65
2021/03/14 08:25:31;;;;;;;;;;;;;;;;;;5073446;28;20349;-65
2021/03/14 08:27:57;;;;;;;;;;;;;;;;;;5073228;28;19935;-65
2021/03/14 08:30:23;;;;;;;;;;;;;;;;;;5072673;28;19923;-65
2021/03/14 08:32:48;;;;;;;;;;;;;;;;;;5073373;28;19904;-65
2021/03/14 08:35:14;;;;;;;;;;;;;;;;;;5072047;28;19991;-64
2021/03/14 08:37:40;;;;;;;;;;;;;;;;;;5073240;28;19958;-65
2021/03/14 08:40:06;;;;;;;;;;;;;;;;;;5073544;28;19987;-63
2021/03/14 08:42:32;;;;;;;;;;;;;;;;;;5073277;28;20423;-64
2021/03/14 08:44:58;;;;;;;;;;;;;;;;;;5073042;28;19960;-63
2021/03/14 08:47:25;;;;;;;;;;;;;;;;;;5073510;28;19954;-64
2021/03/14 08:49:55;;;;;;;;;;;;;;;;;;5073164;28;19911;-64
2021/03/14 08:52:21;;;;;;;;;;;;;;;;;;5070865;28;19915;-65
2021/03/14 08:54:48;;;;;;;;;;;;;;;;;;5075525;28;19904;-65
2021/03/14 08:57:14;;;;;;;;;;;;;;;;;;5077405;28;19905;-65
2021/03/14 08:59:40;;;;;;;;;;;;;;;;;;5077280;28;20356;-63
2021/03/14 09:02:06;;;;;;;;;;;;;;;;;;5077304;28;19916;-64
2021/03/14 09:04:32;;;;;;;;;;;;;;;;;;5077290;28;19904;-63
2021/03/14 09:06:58;;;;;;;;;;;;;;;;;;5077297;28;20007;-64
2021/03/14 09:09:24;;;;;;;;;;;;;;;;;;5076899;28;19936;-64
2021/03/14 09:11:50;;;;;;;;;;;;;;;;;;5077056;28;19991;-64
2021/03/14 09:14:16;;;;;;;;;;;;;;;;;;5076827;28;20273;-64
2021/03/14 09:16:42;;;;;;;;;;;;;;;;;;5076827;28;19940;-63
2021/03/14 09:19:08;;;;;;;;;;;;;;;;;;5076913;28;19915;-63
2021/03/14 09:21:34;;;;;;;;;;;;;;;;;;5076712;28;19912;-64
2021/03/14 09:24:00;;;;;;;;;;;;;;;;;;5076556;28;19908;-64
2021/03/14 09:26:26;;;;;;;;;;;;;;;;;;5076323;28;19920;-64
2021/03/14 09:28:52;;;;;;;;;;;;;;;;;;5076503;28;19904;-65
2021/03/14 09:31:18;;;;;;;;;;;;;;;;;;5075873;28;20003;-64
2021/03/14 09:33:44;;;;;;;;;;;;;;;;;;5076509;28;20394;-63
2021/03/14 09:36:10;;;;;;;;;;;;;;;;;;5076368;28;19904;-63
2021/03/14 09:38:36;;;;;;;;;;;;;;;;;;5076369;28;19905;-65
2021/03/14 09:41:02;;;;;;;;;;;;;;;;;;5076147;28;20003;-63
2021/03/14 09:43:28;;;;;;;;;;;;;;;;;;5076215;28;20429;-64
2021/03/14 09:45:54;;;;;;;;;;;;;;;;;;5075823;28;19978;-63
2021/03/14 09:48:20;;;;;;;;;;;;;;;;;;5076324;28;20372;-65
2021/03/14 09:50:46;;;;;;;;;;;;;;;;;;5076541;28;19904;-65
2021/03/14 09:53:13;;;;;;;;;;;;;;;;;;5076008;28;19909;-64
2021/03/14 09:55:39;;;;;;;;;;;;;;;;;;5076454;28;19905;-65
2021/03/14 09:58:04;;;;;;;;;;;;;;;;;;5075525;28;19915;-64
2021/03/14 10:00:30;;;;;;;;;;;;;;;;;;5074160;28;19919;-65
2021/03/14 10:02:56;;;;;;;;;;;;;;;;;;5076129;28;19912;-66
2021/03/14 10:05:22;;;;;;;;;;;;;;;;;;5075075;28;19916;-63
2021/03/14 10:07:48;;;;;;;;;;;;;;;;;;5075222;28;19911;-63
2021/03/14 10:10:14;;;;;;;;;;;;;;;;;;5076541;28;19959;-65
2021/03/14 10:12:40;;;;;;;;;;;;;;;;;;5076607;28;19911;-64
2021/03/14 10:15:06;;;;;;;;;;;;;;;;;;5076261;28;20390;-66
2021/03/14 10:17:32;;;;;;;;;;;;;;;;;;5076354;28;19911;-65
2021/03/14 10:19:58;;;;;;;;;;;;;;;;;;5076176;28;20277;-65
2021/03/14 10:22:24;;;;;;;;;;;;;;;;;;5074260;28;19908;-64
2021/03/14 10:24:50;;;;;;;;;;;;;;;;;;5073939;28;20319;-65
2021/03/14 10:27:16;;;;;;;;;;;;;;;;;;5075070;28;19923;-65
2021/03/14 10:29:44;;;;;;;;;;;;;;;;;;5074886;28;19908;-63
2021/03/14 10:32:10;;;;;;;;;;;;;;;;;;5075518;28;19908;-64
2021/03/14 10:34:36;;;;;;;;;;;;;;;;;;5075449;28;19909;-64
2021/03/14 10:37:02;;;;;;;;;;;;;;;;;;5075479;28;19908;-66
2021/03/14 10:39:28;;;;;;;;;;;;;;;;;;5075797;28;20262;-66
2021/03/14 10:41:54;;;;;;;;;;;;;;;;;;5075737;28;19954;-65
2021/03/14 10:44:20;;;;;;;;;;;;;;;;;;5075553;28;19915;-64
2021/03/14 10:46:48;;;;;;;;;;;;;;;;;;5075572;28;20399;-65
2021/03/14 10:49:14;;;;;;;;;;;;;;;;;;5075517;28;20366;-63
2021/03/14 10:51:40;;;;;;;;;;;;;;;;;;5075152;28;19963;-65
2021/03/14 10:54:06;;;;;;;;;;;;;;;;;;5075730;28;20250;-65
2021/03/14 10:56:32;;;;;;;;;;;;;;;;;;5075776;28;19911;-66
2021/03/14 10:58:58;;;;;;;;;;;;;;;;;;5075320;28;20376;-65
2021/03/14 11:01:28;;;;;;;;;;;;;;;;;;5075367;28;19909;-64
2021/03/14 11:03:54;;;;;;;;;;;;;;;;;;5075441;28;19957;-64
2021/03/14 11:06:20;;;;;;;;;;;;;;;;;;5074534;28;20170;-64
2021/03/14 11:08:46;;;;;;;;;;;;;;;;;;5075042;28;19910;-65
2021/03/14 11:11:12;;;;;;;;;;;;;;;;;;5072822;28;19909;-64
2021/03/14 11:13:38;;;;;;;;;;;;;;;;;;5073955;28;19951;-63
2021/03/14 11:16:04;;;;;;;;;;;;;;;;;;5074110;28;19912;-66
2021/03/14 11:18:30;;;;;;;;;;;;;;;;;;5073005;28;19908;-65
2021/03/14 11:20:56;;;;;;;;;;;;;;;;;;5073701;28;20249;-65
2021/03/14 11:23:22;;;;;;;;;;;;;;;;;;5074238;28;19908;-64
2021/03/14 11:25:47;;;;;;;;;;;;;;;;;;5074672;28;19916;-66
2021/03/14 11:28:13;;;;;;;;;;;;;;;;;;5074600;28;19917;-64
2021/03/14 11:30:40;;;;;;;;;;;;;;;;;;5073556;28;19958;-65
2021/03/14 11:33:05;;;;;;;;;;;;;;;;;;5073117;28;19908;-65
2021/03/14 11:35:31;;;;;;;;;;;;;;;;;;5074086;28;20380;-64
2021/03/14 11:37:57;;;;;;;;;;;;;;;;;;5074586;28;19909;-65
2021/03/14 11:40:23;;;;;;;;;;;;;;;;;;5073625;28;20318;-65
2021/03/14 11:42:49;;;;;;;;;;;;;;;;;;5073071;28;19908;-65
2021/03/14 11:45:15;;;;;;;;;;;;;;;;;;5073503;28;19916;-65
2021/03/14 11:47:41;;;;;;;;;;;;;;;;;;5072989;28;20280;-64
2021/03/14 11:50:07;;;;;;;;;;;;;;;;;;5074122;28;19905;-65
2021/03/14 11:52:33;;;;;;;;;;;;;;;;;;5074560;28;19983;-65
2021/03/14 11:54:59;;;;;;;;;;;;;;;;;;5074428;28;19905;-65
2021/03/14 11:57:25;;;;;;;;;;;;;;;;;;5072526;28;20357;-64
2021/03/14 11:59:51;;;;;;;;;;;;;;;;;;5073611;28;19962;-64
2021/03/14 12:02:17;;;;;;;;;;;;;;;;;;5073104;28;20482;-64
2021/03/14 12:04:43;;;;;;;;;;;;;;;;;;5068669;28;19995;-65
2021/03/14 12:07:09;;;;;;;;;;;;;;;;;;5070242;28;20433;-64
2021/03/14 12:09:35;;;;;;;;;;;;;;;;;;5071422;28;19908;-62
2021/03/14 12:12:04;;;;;;;;;;;;;;;;;;5071983;28;19999;-63
2021/03/14 12:14:30;;;;;;;;;;;;;;;;;;5072174;28;19905;-62
2021/03/14 12:16:56;;;;;;;;;;;;;;;;;;5072290;28;20400;-65
2021/03/14 12:19:22;;;;;;;;;;;;;;;;;;5072206;28;19905;-65
2021/03/14 12:21:48;;;;;;;;;;;;;;;;;;5072461;28;19954;-66
2021/03/14 12:24:14;;;;;;;;;;;;;;;;;;5070974;28;20361;-64
2021/03/14 12:26:40;;;;;;;;;;;;;;;;;;5072096;28;19964;-62
2021/03/14 12:29:07;;;;;;;;;;;;;;;;;;5071636;28;19908;-59
2021/03/14 12:31:33;;;;;;;;;;;;;;;;;;5071436;28;19908;-63
2021/03/14 12:33:59;;;;;;;;;;;;;;;;;;5071987;28;19999;-60
2021/03/14 12:36:25;;;;;;;;;;;;;;;;;;5071473;28;19992;-63
2021/03/14 12:38:51;;;;;;;;;;;;;;;;;;5068014;28;19954;-62
2021/03/14 12:41:17;;;;;;;;;;;;;;;;;;5071308;28;20103;-66
2021/03/14 12:43:43;;;;;;;;;;;;;;;;;;5071144;28;19978;-62
2021/03/14 12:46:09;;;;;;;;;;;;;;;;;;5071810;28;20023;-63
2021/03/14 12:48:35;;;;;;;;;;;;;;;;;;5071664;28;20265;-70
2021/03/14 12:51:02;;;;;;;;;;;;;;;;;;5070167;28;19918;-64
2021/03/14 12:53:28;;;;;;;;;;;;;;;;;;5070308;28;19908;-63
2021/03/14 12:55:54;;;;;;;;;;;;;;;;;;5072155;28;19924;-60
2021/03/14 12:58:20;;;;;;;;;;;;;;;;;;5068886;28;20395;-61
2021/03/14 13:00:46;;;;;;;;;;;;;;;;;;5071697;28;19915;-65
2021/03/14 13:03:13;;;;;;;;;;;;;;;;;;5071055;28;19904;-62
2021/03/14 13:05:39;;;;;;;;;;;;;;;;;;5070966;28;20801;-66
2021/03/14 13:08:05;;;;;;;;;;;;;;;;;;5067734;28;19990;-64
2021/03/14 13:10:32;;;;;;;;;;;;;;;;;;5070363;28;19904;-64
2021/03/14 13:12:58;;;;;;;;;;;;;;;;;;5070578;28;19928;-63
2021/03/14 13:15:24;;;;;;;;;;;;;;;;;;5071037;28;19909;-64
2021/03/14 13:17:50;;;;;;;;;;;;;;;;;;5071538;28;20001;-63
2021/03/14 13:20:17;;;;;;;;;;;;;;;;;;5071401;28;19963;-67
2021/03/14 13:22:43;;;;;;;;;;;;;;;;;;5071210;28;20289;-63
2021/03/14 13:25:10;;;;;;;;;;;;;;;;;;5071552;28;19916;-65
2021/03/14 13:27:36;;;;;;;;;;;;;;;;;;5071617;28;19917;-63
2021/03/14 13:30:02;;;;;;;;;;;;;;;;;;5071351;28;19981;-64
2021/03/14 13:32:28;;;;;;;;;;;;;;;;;;5071623;28;19951;-65
2021/03/14 13:34:54;;;;;;;;;;;;;;;;;;5071550;28;19904;-65
2021/03/14 13:37:20;;;;;;;;;;;;;;;;;;5069541;28;20250;-62
2021/03/14 13:39:46;;;;;;;;;;;;;;;;;;5070078;28;19930;-63
2021/03/14 13:42:12;;;;;;;;;;;;;;;;;;5073036;28;20358;-62
2021/03/14 13:44:38;;;;;;;;;;;;;;;;;;5074571;28;19962;-62
2021/03/14 13:47:04;;;;;;;;;;;;;;;;;;5075261;28;20003;-63
2021/03/14 13:49:30;;;;;;;;;;;;;;;;;;5074632;28;20376;-64
2021/03/14 13:51:56;;;;;;;;;;;;;;;;;;5074945;28;19912;-64
2021/03/14 13:54:22;;;;;;;;;;;;;;;;;;5074603;28;19904;-66
2021/03/14 13:56:48;;;;;;;;;;;;;;;;;;5074827;28;19995;-66
2021/03/14 13:59:14;;;;;;;;;;;;;;;;;;5074940;28;19912;-61
2021/03/14 14:01:40;;;;;;;;;;;;;;;;;;5074864;28;20280;-67
2021/03/14 14:04:06;;;;;;;;;;;;;;;;;;5074462;28;19954;-64
2021/03/14 14:06:32;;;;;;;;;;;;;;;;;;5074601;28;19919;-64
2021/03/14 14:08:58;;;;;;;;;;;;;;;;;;5074410;28;19909;-66
2021/03/14 14:11:24;;;;;;;;;;;;;;;;;;5074231;28;20050;-64
2021/03/14 14:13:50;;;;;;;;;;;;;;;;;;5072772;28;20388;-65
2021/03/14 14:16:16;;;;;;;;;;;;;;;;;;5074277;28;19916;-64
2021/03/14 14:18:43;;;;;;;;;;;;;;;;;;5073695;28;19909;-60
2021/03/14 14:21:09;;;;;;;;;;;;;;;;;;5074142;28;19998;-59
2021/03/14 14:23:35;;;;;;;;;;;;;;;;;;5073777;28;19951;-62
2021/03/14 14:26:01;;;;;;;;;;;;;;;;;;5073923;28;20369;-61
2021/03/14 14:28:27;;;;;;;;;;;;;;;;;;5073979;28;20320;-61
2021/03/14 14:30:53;;;;;;;;;;;;;;;;;;5073555;28;19908;-63
2021/03/14 14:33:19;;;;;;;;;;;;;;;;;;5073663;28;19904;-64
2021/03/14 14:35:45;;;;;;;;;;;;;;;;;;5073558;28;20358;-62
2021/03/14 14:38:11;;;;;;;;;;;;;;;;;;5071338;28;20360;-68
2021/03/14 14:40:37;;;;;;;;;;;;;;;;;;5072535;28;19909;-65
2021/03/14 14:43:03;;;;;;;;;;;;;;;;;;5073861;28;19911;-64
2021/03/14 14:45:29;;;;;;;;;;;;;;;;;;5073505;28;20003;-62
2021/03/14 14:47:55;;;;;;;;;;;;;;;;;;5073744;28;19908;-64
2021/03/14 14:50:21;;;;;;;;;;;;;;;;;;5073802;28;19904;-65
2021/03/14 14:52:48;;;;;;;;;;;;;;;;;;5073265;28;19908;-61
2021/03/14 14:55:14;;;;;;;;;;;;;;;;;;5073467;28;19995;-65
2021/03/14 14:57:40;;;;;;;;;;;;;;;;;;5073344;28;19939;-64
2021/03/14 15:00:06;;;;;;;;;;;;;;;;;;5073523;28;20023;-64
2021/03/14 15:02:32;;;;;;;;;;;;;;;;;;5070959;28;19995;-65
2021/03/14 15:04:58;;;;;;;;;;;;;;;;;;5072884;28;19915;-63
2021/03/14 15:07:24;;;;;;;;;;;;;;;;;;5073110;28;19909;-64
2021/03/14 15:09:50;;;;;;;;;;;;;;;;;;5071297;28;19978;-64
2021/03/14 15:12:16;;;;;;;;;;;;;;;;;;5072258;28;19904;-65
2021/03/14 15:14:42;;;;;;;;;;;;;;;;;;5073064;28;19911;-64
2021/03/14 15:17:08;;;;;;;;;;;;;;;;;;5073257;28;19908;-64
2021/03/14 15:19:34;;;;;;;;;;;;;;;;;;5072911;28;20300;-64
2021/03/14 15:22:00;;;;;;;;;;;;;;;;;;5073012;28;19908;-65
2021/03/14 15:24:26;;;;;;;;;;;;;;;;;;5072935;28;19915;-64
2021/03/14 15:26:52;;;;;;;;;;;;;;;;;;5070224;28;20288;-63
2021/03/14 15:29:18;;;;;;;;;;;;;;;;;;5072775;28;19915;-64
2021/03/14 15:31:44;;;;;;;;;;;;;;;;;;5072083;28;19919;-62
2021/03/14 15:34:10;;;;;;;;;;;;;;;;;;5072023;28;19908;-63
2021/03/14 15:36:37;;;;;;;;;;;;;;;;;;5072860;28;19904;-66
2021/03/14 15:39:03;;;;;;;;;;;;;;;;;;5072872;28;19955;-67
2021/03/14 15:41:28;;;;;;;;;;;;;;;;;;5072807;28;19935;-66
2021/03/14 15:43:54;;;;;;;;;;;;;;;;;;5073144;28;20233;-67
2021/03/14 15:46:20;;;;;;;;;;;;;;;;;;5072692;28;19978;-66
2021/03/14 15:48:46;;;;;;;;;;;;;;;;;;5072109;28;19908;-67
2021/03/14 15:51:12;;;;;;;;;;;;;;;;;;5072821;28;19909;-66
2021/03/14 15:53:38;;;;;;;;;;;;;;;;;;5072076;28;20281;-66
2021/03/14 15:56:04;;;;;;;;;;;;;;;;;;5072485;28;19908;-67
2021/03/14 15:58:30;;;;;;;;;;;;;;;;;;5072617;28;19912;-66
2021/03/14 16:00:56;;;;;;;;;;;;;;;;;;5072732;28;20006;-67
2021/03/14 16:03:22;;;;;;;;;;;;;;;;;;5072302;28;19911;-65
2021/03/14 16:05:50;;;;;;;;;;;;;;;;;;5071240;28;19924;-66
2021/03/14 16:08:16;;;;;;;;;;;;;;;;;;5070900;28;20038;-66
2021/03/14 16:10:44;;;;;;;;;;;;;;;;;;5072477;28;20368;-67
2021/03/14 16:13:10;;;;;;;;;;;;;;;;;;5072430;28;20541;-66
2021/03/14 16:15:36;;;;;;;;;;;;;;;;;;5072395;28;19939;-66
2021/03/14 16:18:02;;;;;;;;;;;;;;;;;;5072456;28;20331;-66
2021/03/14 16:20:28;;;;;;;;;;;;;;;;;;5070454;28;19995;-62
2021/03/14 16:22:54;;;;;;;;;;;;;;;;;;5071846;28;19953;-64
2021/03/14 16:25:20;;;;;;;;;;;;;;;;;;5071241;28;19916;-63
2021/03/14 16:27:46;;;;;;;;;;;;;;;;;;5071608;28;19916;-65
2021/03/14 16:30:12;;;;;;;;;;;;;;;;;;5071961;28;19904;-62
2021/03/14 16:32:38;;;;;;;;;;;;;;;;;;5071887;28;19961;-63
2021/03/14 16:35:04;;;;;;;;;;;;;;;;;;5071945;28;19908;-62
2021/03/14 16:37:30;;;;;;;;;;;;;;;;;;5070454;28;19916;-63